Time;durP1;ratioP1;P1;durP2;ratioP2;P2;SDS_P1;SDS_P2;PMS_P1;PMS_P2;Temp;Humidity;BMP_temperature;BMP_pressure;BME280_temperature;BME280_humidity;BME280_pressure;Samples;Min_cycle;Max_cycle;Signal;HPM_P1;HPM_P2
2022/10/21 00:00:59;;;;;;;88.93;41.10;;;11.40;99.90;;;;;;5112948;28;20619;-40
2022/10/21 00:03:26;;;;;;;89.22;39.88;;;11.30;99.90;;;;;;5113682;28;20126;-39
2022/10/21 00:05:52;;;;;;;80.80;41.20;;;11.30;99.90;;;;;;5114362;28;20047;-37
2022/10/21 00:08:18;;;;;;;86.75;41.15;;;11.30;99.90;;;;;;5118136;27;20048;-39
2022/10/21 00:10:44;;;;;;;85.18;38.70;;;11.20;99.90;;;;;;5118068;28;20043;-38
2022/10/21 00:13:11;;;;;;;98.50;41.95;;;11.30;99.90;;;;;;5117087;28;20181;-38
2022/10/21 00:15:36;;;;;;;86.57;39.63;;;11.20;99.90;;;;;;5118466;28;20047;-39
2022/10/21 00:18:02;;;;;;;88.72;39.17;;;11.30;99.90;;;;;;5116756;28;20070;-38
2022/10/21 00:20:28;;;;;;;96.60;42.78;;;11.10;99.90;;;;;;5117890;28;20048;-39
2022/10/21 00:22:54;;;;;;;84.20;39.05;;;11.20;99.90;;;;;;5118445;28;20062;-37
2022/10/21 00:25:19;;;;;;;98.35;40.97;;;11.20;99.90;;;;;;5116866;28;20043;-34
2022/10/21 00:27:45;;;;;;;86.95;41.05;;;11.20;99.90;;;;;;5118363;28;20054;-40
2022/10/21 00:30:12;;;;;;;115.43;43.63;;;11.30;99.90;;;;;;5118336;28;20047;-39
2022/10/21 00:32:37;;;;;;;96.07;41.85;;;11.40;99.90;;;;;;5117708;28;20039;-39
2022/10/21 00:35:04;;;;;;;97.97;41.97;;;11.20;99.90;;;;;;5117495;28;20047;-37
2022/10/21 00:37:31;;;;;;;99.95;43.42;;;11.40;99.90;;;;;;5099619;28;20043;-37
2022/10/21 00:39:57;;;;;;;106.45;42.65;;;11.30;99.90;;;;;;5100269;28;20079;-38
2022/10/21 00:42:31;;;;;;;95.03;41.90;;;11.20;99.90;;;;;;5117529;28;20066;-37
2022/10/21 00:45:06;;;;;;;97.82;42.75;;;11.20;99.90;;;;;;5118092;27;20044;-37
2022/10/21 00:47:42;;;;;;;100.82;41.65;;;11.20;99.90;;;;;;5117432;28;20134;-36
2022/10/21 00:50:32;;;;;;;98.50;42.22;;;11.30;99.90;;;;;;5117439;28;20096;-37
2022/10/21 00:53:00;;;;;;;102.47;43.65;;;11.20;99.90;;;;;;5098397;28;20051;-37
2022/10/21 00:55:28;;;;;;;107.22;42.88;;;11.10;99.90;;;;;;5117192;28;20044;-37
2022/10/21 00:57:55;;;;;;;108.70;43.70;;;11.00;99.90;;;;;;5117742;28;20092;-38
2022/10/21 01:00:21;;;;;;;97.38;41.92;;;11.00;99.90;;;;;;5116090;28;20122;-37
2022/10/21 01:02:47;;;;;;;109.30;42.85;;;11.10;99.90;;;;;;5117115;28;20143;-34
2022/10/21 01:05:14;;;;;;;120.85;45.25;;;11.00;99.90;;;;;;5116737;28;20105;-34
2022/10/21 01:07:40;;;;;;;126.85;45.58;;;11.00;99.90;;;;;;5117014;28;20044;-34
2022/10/21 01:10:06;;;;;;;119.95;44.28;;;10.80;99.90;;;;;;5117000;28;20046;-33
2022/10/21 01:12:47;;;;;;;147.55;48.17;;;10.80;99.90;;;;;;5116942;28;20409;-34
2022/10/21 01:15:19;;;;;;;122.45;43.13;;;10.80;99.90;;;;;;5117418;28;20054;-34
2022/10/21 01:17:51;;;;;;;128.75;45.38;;;10.80;99.90;;;;;;5115295;28;20044;-34
2022/10/21 01:20:38;;;;;;;122.38;45.65;;;10.60;99.90;;;;;;5098591;28;20051;-33
2022/10/21 01:23:51;;;;;;;117.90;43.95;;;10.70;99.90;;;;;;5116710;28;20043;-34
2022/10/21 01:26:54;;;;;;;140.73;47.00;;;10.60;99.90;;;;;;5073681;28;20048;-33
2022/10/21 01:29:50;;;;;;;129.27;44.92;;;10.50;99.90;;;;;;5073655;28;20410;-34
2022/10/21 01:32:53;;;;;;;145.57;47.13;;;10.50;99.90;;;;;;5113061;28;20134;-34
2022/10/21 01:35:23;;;;;;;172.25;46.72;;;10.40;99.90;;;;;;5116169;28;20051;-34
2022/10/21 01:38:01;;;;;;;146.48;47.33;;;10.50;99.90;;;;;;5116782;28;20040;-33
2022/10/21 01:40:53;;;;;;;200.00;49.60;;;10.30;99.90;;;;;;5116414;28;20044;-34
2022/10/21 01:43:51;;;;;;;157.30;47.53;;;10.30;99.90;;;;;;5110277;28;20142;-34
2022/10/21 01:46:32;;;;;;;141.35;47.28;;;10.30;99.90;;;;;;5116893;28;20052;-35
2022/10/21 01:49:03;;;;;;;161.45;50.22;;;10.10;99.90;;;;;;5115604;28;20051;-33
2022/10/21 01:51:30;;;;;;;202.80;52.55;;;10.30;99.90;;;;;;5116788;28;20054;-33
2022/10/21 01:54:08;;;;;;;175.60;48.53;;;10.10;99.90;;;;;;5116051;28;20043;-34
2022/10/21 01:56:35;;;;;;;173.52;50.05;;;10.20;99.90;;;;;;5115687;28;20035;-34
2022/10/21 01:59:02;;;;;;;149.25;47.50;;;10.30;99.90;;;;;;5116042;28;20131;-36
2022/10/21 02:01:30;;;;;;;168.00;51.03;;;10.40;99.90;;;;;;5114928;28;20056;-36
2022/10/21 02:04:00;;;;;;;166.05;51.60;;;10.30;99.90;;;;;;5115938;27;20047;-37
2022/10/21 02:06:26;;;;;;;184.80;52.97;;;10.40;99.90;;;;;;5116238;28;20123;-35
2022/10/21 02:08:52;;;;;;;186.15;52.65;;;10.50;99.90;;;;;;5115811;28;20508;-36
2022/10/21 02:11:18;;;;;;;181.70;53.30;;;10.60;99.90;;;;;;5115868;28;20048;-36
2022/10/21 02:13:50;;;;;;;149.48;48.25;;;10.60;99.90;;;;;;5115653;28;20434;-37
2022/10/21 02:16:17;;;;;;;151.77;47.83;;;10.70;99.90;;;;;;5114798;28;20048;-37
2022/10/21 02:18:43;;;;;;;158.00;50.08;;;10.70;99.90;;;;;;5115896;28;20518;-35
2022/10/21 02:21:17;;;;;;;121.65;48.08;;;10.60;99.90;;;;;;5115461;28;20048;-38
2022/10/21 02:23:56;;;;;;;123.40;46.67;;;10.70;99.90;;;;;;5115923;28;20044;-36
2022/10/21 02:26:24;;;;;;;125.13;48.17;;;10.90;99.90;;;;;;5115824;28;20474;-38
2022/10/21 02:28:52;;;;;;;128.43;47.15;;;11.00;99.90;;;;;;5115098;28;20059;-38
2022/10/21 02:31:21;;;;;;;121.68;48.53;;;11.10;99.90;;;;;;5115397;28;20051;-37
2022/10/21 02:33:52;;;;;;;116.68;47.50;;;11.20;99.90;;;;;;5114560;28;20131;-38
2022/10/21 02:36:38;;;;;;;124.57;47.42;;;11.20;99.90;;;;;;5116512;28;20063;-38
2022/10/21 02:39:15;;;;;;;119.10;46.83;;;11.40;99.90;;;;;;5115298;28;20090;-39
2022/10/21 02:41:42;;;;;;;122.40;46.95;;;11.30;99.90;;;;;;5115273;28;20059;-38
2022/10/21 02:44:09;;;;;;;124.05;47.60;;;11.30;99.90;;;;;;5115446;28;20100;-35
2022/10/21 02:46:36;;;;;;;126.22;48.17;;;11.30;99.90;;;;;;5115087;28;20044;-34
2022/10/21 02:49:02;;;;;;;150.07;48.13;;;11.40;99.90;;;;;;5115031;28;20504;-36
2022/10/21 02:51:28;;;;;;;166.57;48.15;;;11.50;99.90;;;;;;5114007;28;20058;-33
2022/10/21 02:53:54;;;;;;;177.98;51.38;;;11.60;99.90;;;;;;5113628;28;20043;-38
2022/10/21 02:56:19;;;;;;;183.48;52.05;;;11.60;99.90;;;;;;5115764;28;20134;-39
2022/10/21 02:58:45;;;;;;;123.60;45.53;;;11.50;99.90;;;;;;5115158;28;20051;-35
2022/10/21 03:01:11;;;;;;;157.00;50.55;;;11.90;99.90;;;;;;5114768;28;20477;-40
2022/10/21 03:03:36;;;;;;;150.82;48.08;;;11.70;99.90;;;;;;5114802;28;20050;-41
2022/10/21 03:06:02;;;;;;;208.07;57.50;;;12.20;99.90;;;;;;5114720;28;20055;-37
2022/10/21 03:08:28;;;;;;;169.15;51.58;;;12.00;99.90;;;;;;5113711;28;20051;-41
2022/10/21 03:10:54;;;;;;;233.73;57.45;;;12.00;99.90;;;;;;5114670;28;20043;-41
2022/10/21 03:13:20;;;;;;;218.15;55.63;;;11.60;99.90;;;;;;5114218;28;20046;-41
2022/10/21 03:15:48;;;;;;;151.13;48.03;;;11.70;99.90;;;;;;5114408;28;20104;-42
2022/10/21 03:18:13;;;;;;;117.63;41.35;;;11.80;99.90;;;;;;5114495;28;20044;-42
2022/10/21 03:20:39;;;;;;;142.00;43.55;;;12.00;99.90;;;;;;5115020;28;20050;-43
2022/10/21 03:23:05;;;;;;;121.88;41.47;;;11.10;99.90;;;;;;5114328;28;20036;-43
2022/10/21 03:25:30;;;;;;;107.38;39.03;;;10.70;99.90;;;;;;5096325;28;20044;-42
2022/10/21 03:27:56;;;;;;;98.97;37.53;;;11.30;99.90;;;;;;5114455;28;20503;-43
2022/10/21 03:30:22;;;;;;;110.03;36.88;;;11.30;99.90;;;;;;5115191;28;20052;-43
2022/10/21 03:32:47;;;;;;;134.43;41.58;;;11.50;99.90;;;;;;5114160;28;20450;-42
2022/10/21 03:35:14;;;;;;;92.60;35.63;;;11.80;99.90;;;;;;5114129;28;20056;-43
2022/10/21 03:37:39;;;;;;;123.60;41.05;;;13.80;99.90;;;;;;5114337;28;20048;-43
2022/10/21 03:40:06;;;;;;;162.88;46.30;;;11.30;99.90;;;;;;5114216;28;20047;-42
2022/10/21 03:42:32;;;;;;;160.05;45.50;;;11.10;99.90;;;;;;5113763;28;20046;-42
2022/10/21 03:44:57;;;;;;;196.23;51.15;;;11.60;99.90;;;;;;5113014;28;20043;-42
2022/10/21 03:47:23;;;;;;;215.27;50.25;;;13.60;99.90;;;;;;5114157;28;20044;-42
2022/10/21 03:49:49;;;;;;;168.63;46.20;;;12.30;99.90;;;;;;5114399;28;20048;-42
2022/10/21 03:52:15;;;;;;;173.35;49.97;;;12.70;99.90;;;;;;5096462;28;20134;-42
2022/10/21 03:54:40;;;;;;;185.65;50.33;;;11.40;99.90;;;;;;5113988;28;20493;-43
2022/10/21 03:57:06;;;;;;;137.90;46.83;;;13.60;99.90;;;;;;5113893;28;20046;-42
2022/10/21 03:59:32;;;;;;;166.40;47.92;;;13.50;99.90;;;;;;5112909;28;20059;-42
2022/10/21 04:01:57;;;;;;;176.13;49.80;;;12.80;99.90;;;;;;5113922;28;20460;-42
2022/10/21 04:04:23;;;;;;;190.73;50.65;;;11.00;99.90;;;;;;5095792;28;20055;-42
2022/10/21 04:06:49;;;;;;;185.65;50.33;;;11.60;99.90;;;;;;5113990;28;20144;-42
2022/10/21 04:09:14;;;;;;;166.77;48.92;;;11.10;99.90;;;;;;5114054;28;20079;-42
2022/10/21 04:11:40;;;;;;;170.23;50.72;;;13.50;99.90;;;;;;5113973;28;20043;-43
2022/10/21 04:14:06;;;;;;;212.40;53.88;;;13.40;99.90;;;;;;5112648;28;20046;-42
2022/10/21 04:16:32;;;;;;;182.05;52.15;;;11.00;99.90;;;;;;5114496;28;20083;-42
2022/10/21 04:18:59;;;;;;;206.48;55.50;;;11.00;99.90;;;;;;5112910;28;20047;-42
2022/10/21 04:21:25;;;;;;;181.45;52.70;;;13.40;99.90;;;;;;5113865;28;20047;-42
2022/10/21 04:23:50;;;;;;;174.63;51.90;;;11.90;99.90;;;;;;5113819;28;20097;-42
2022/10/21 04:26:16;;;;;;;198.65;54.05;;;13.50;99.90;;;;;;5112864;28;20044;-42
2022/10/21 04:28:42;;;;;;;206.02;55.88;;;11.50;99.90;;;;;;5113824;28;20082;-42
2022/10/21 04:31:07;;;;;;;255.25;61.60;;;11.10;99.90;;;;;;5113760;28;20127;-42
2022/10/21 04:33:33;;;;;;;209.45;54.58;;;11.90;99.90;;;;;;5113709;28;20044;-41
2022/10/21 04:35:59;;;;;;;226.90;58.25;;;11.10;99.90;;;;;;5113104;28;20390;-42
2022/10/21 04:38:25;;;;;;;222.07;58.60;;;11.80;99.90;;;;;;5114236;28;20477;-42
2022/10/21 04:41:02;;;;;;;217.43;57.55;;;13.30;99.90;;;;;;5113714;28;20055;-42
2022/10/21 04:43:28;;;;;;;195.85;52.72;;;13.30;99.90;;;;;;5113663;28;20079;-42
2022/10/21 04:45:54;;;;;;;223.07;56.00;;;12.90;99.90;;;;;;5114196;28;20075;-41
2022/10/21 04:48:20;;;;;;;236.63;52.83;;;13.20;99.90;;;;;;5114724;28;20535;-42
2022/10/21 04:50:50;;;;;;;214.85;54.35;;;10.80;99.90;;;;;;5112618;28;20040;-41
2022/10/21 04:53:16;;;;;;;236.73;57.03;;;11.30;99.90;;;;;;5114579;28;20043;-42
2022/10/21 04:55:42;;;;;;;232.20;53.70;;;11.00;99.90;;;;;;5117167;28;20031;-42
2022/10/21 04:58:08;;;;;;;262.60;60.00;;;10.70;99.90;;;;;;5117249;28;20049;-41
2022/10/21 05:00:34;;;;;;;264.85;59.40;;;12.90;99.90;;;;;;5116778;28;20039;-41
2022/10/21 05:03:00;;;;;;;230.95;57.28;;;10.50;99.90;;;;;;5117157;28;20078;-42
2022/10/21 05:05:25;;;;;;;286.85;59.83;;;10.40;99.90;;;;;;5117075;28;20075;-41
2022/10/21 05:07:51;;;;;;;238.63;57.58;;;12.10;99.90;;;;;;5117041;28;20083;-42
2022/10/21 05:10:17;;;;;;;324.48;63.47;;;12.70;99.90;;;;;;5116989;28;20047;-42
2022/10/21 05:12:42;;;;;;;377.10;66.38;;;12.60;99.90;;;;;;5116914;28;20058;-42
2022/10/21 05:15:08;;;;;;;285.42;59.88;;;12.50;99.90;;;;;;5117381;28;20043;-42
2022/10/21 05:17:35;;;;;;;202.73;53.35;;;12.40;99.90;;;;;;5116827;28;20477;-42
2022/10/21 05:20:02;;;;;;;321.48;64.70;;;12.40;99.90;;;;;;5116796;28;20052;-42
2022/10/21 05:22:28;;;;;;;264.15;58.65;;;10.10;99.90;;;;;;5116760;28;20047;-41
2022/10/21 05:24:54;;;;;;;299.65;59.03;;;10.10;99.90;;;;;;5116696;28;20047;-42
2022/10/21 05:27:19;;;;;;;231.00;57.55;;;12.30;99.90;;;;;;5116649;28;20092;-42
2022/10/21 05:29:45;;;;;;;261.23;55.75;;;11.30;99.90;;;;;;5117219;28;20079;-42
2022/10/21 05:32:10;;;;;;;317.38;63.50;;;10.20;99.90;;;;;;5116610;28;20493;-42
2022/10/21 05:34:36;;;;;;;256.65;59.63;;;10.30;99.90;;;;;;5116400;28;20052;-42
2022/10/21 05:37:02;;;;;;;287.15;57.40;;;11.30;99.90;;;;;;5116739;28;20057;-41
2022/10/21 05:39:27;;;;;;;340.15;67.28;;;11.40;99.90;;;;;;5116464;28;20172;-41
2022/10/21 05:41:53;;;;;;;333.20;63.60;;;11.70;99.90;;;;;;5116338;28;20079;-41
2022/10/21 05:44:19;;;;;;;323.55;65.00;;;12.50;99.90;;;;;;5098405;28;20048;-41
2022/10/21 05:46:44;;;;;;;436.80;72.28;;;10.40;99.90;;;;;;5116344;28;20055;-42
2022/10/21 05:49:11;;;;;;;439.98;73.53;;;10.60;99.90;;;;;;5115068;28;20047;-41
2022/10/21 05:51:37;;;;;;;478.90;69.25;;;10.70;99.90;;;;;;5115879;28;20405;-42
2022/10/21 05:54:04;;;;;;;339.35;67.60;;;10.30;99.90;;;;;;5116072;28;20040;-41
2022/10/21 05:56:30;;;;;;;410.00;70.88;;;10.20;99.90;;;;;;5115799;28;20105;-41
2022/10/21 05:58:56;;;;;;;437.00;76.80;;;12.40;99.90;;;;;;5115403;28;20055;-41
2022/10/21 06:01:22;;;;;;;360.38;67.72;;;12.40;99.90;;;;;;5116507;28;20048;-41
2022/10/21 06:03:47;;;;;;;542.28;82.03;;;10.60;99.90;;;;;;5115644;27;20548;-42
2022/10/21 06:06:13;;;;;;;468.83;79.22;;;10.20;99.90;;;;;;5114662;28;20119;-41
2022/10/21 06:08:39;;;;;;;419.67;70.78;;;12.30;99.90;;;;;;5115927;27;20122;-41
2022/10/21 06:11:11;;;;;;;400.95;69.93;;;10.20;99.90;;;;;;5115869;28;20473;-41
2022/10/21 06:13:38;;;;;;;449.37;72.10;;;10.80;99.90;;;;;;5115746;28;20126;-41
2022/10/21 06:16:04;;;;;;;331.60;62.30;;;11.90;99.90;;;;;;5116547;28;20272;-42
2022/10/21 06:18:30;;;;;;;323.02;65.32;;;12.00;99.90;;;;;;5116511;28;20044;-41
2022/10/21 06:20:56;;;;;;;334.75;66.32;;;12.30;99.90;;;;;;5115587;28;20469;-42
2022/10/21 06:23:22;;;;;;;327.52;69.20;;;12.40;99.90;;;;;;5115593;28;20054;-41
2022/10/21 06:26:02;;;;;;;264.45;62.97;;;11.20;99.90;;;;;;5115556;27;20044;-41
2022/10/21 06:28:31;;;;;;;294.92;66.88;;;12.10;99.90;;;;;;5115493;28;20092;-42
2022/10/21 06:30:57;;;;;;;284.15;65.45;;;12.60;99.90;;;;;;5115377;28;20470;-42
2022/10/21 06:33:23;;;;;;;287.42;67.53;;;10.70;99.90;;;;;;5115254;28;20047;-41
2022/10/21 06:35:49;;;;;;;242.98;63.03;;;10.80;99.90;;;;;;5114673;28;20531;-41
2022/10/21 06:38:15;;;;;;;263.15;63.28;;;10.80;99.90;;;;;;5115159;28;20118;-41
2022/10/21 06:40:41;;;;;;;245.60;64.43;;;10.90;99.90;;;;;;5113641;28;20489;-41
2022/10/21 06:43:07;;;;;;;226.80;64.55;;;12.60;99.90;;;;;;5115132;28;20058;-42
2022/10/21 06:45:33;;;;;;;259.65;63.28;;;13.00;99.90;;;;;;5096932;28;20115;-42
2022/10/21 06:47:59;;;;;;;213.68;60.63;;;12.60;99.90;;;;;;5115524;28;20043;-41
2022/10/21 06:50:25;;;;;;;202.98;60.55;;;11.20;99.90;;;;;;5114930;28;20063;-41
2022/10/21 06:52:50;;;;;;;191.07;57.17;;;11.40;99.90;;;;;;5114901;28;20070;-41
2022/10/21 06:55:17;;;;;;;193.77;58.20;;;12.50;99.90;;;;;;5113607;28;20460;-41
2022/10/21 06:57:43;;;;;;;207.52;59.53;;;13.40;99.90;;;;;;5114778;28;20051;-42
2022/10/21 07:00:11;;;;;;;218.75;59.92;;;11.50;99.90;;;;;;5113770;28;20481;-41
2022/10/21 07:02:36;;;;;;;228.00;63.92;;;12.70;99.90;;;;;;5114641;28;20039;-42
2022/10/21 07:05:03;;;;;;;211.80;59.30;;;13.30;99.90;;;;;;5114703;28;20088;-41
2022/10/21 07:07:29;;;;;;;195.05;58.45;;;12.90;99.90;;;;;;5113934;28;20079;-41
2022/10/21 07:09:56;;;;;;;207.43;59.70;;;13.60;99.90;;;;;;5115528;28;20047;-42
2022/10/21 07:12:26;;;;;;;173.32;54.13;;;12.30;99.90;;;;;;5114676;28;20046;-41
2022/10/21 07:14:55;;;;;;;174.05;55.70;;;13.80;99.90;;;;;;5114548;27;20086;-42
2022/10/21 07:17:21;;;;;;;181.93;57.25;;;11.80;99.90;;;;;;5113918;28;20043;-42
2022/10/21 07:19:47;;;;;;;198.63;61.72;;;12.20;99.90;;;;;;5113925;28;20487;-42
2022/10/21 07:22:14;;;;;;;220.10;63.42;;;13.80;99.90;;;;;;5114468;28;20103;-41
2022/10/21 07:24:40;;;;;;;153.57;52.05;;;12.10;99.90;;;;;;5113883;28;20075;-42
2022/10/21 07:27:06;;;;;;;182.80;55.17;;;12.10;99.90;;;;;;5114927;28;20050;-42
2022/10/21 07:29:32;;;;;;;198.52;59.20;;;12.20;99.90;;;;;;5113513;28;20043;-42
2022/10/21 07:31:58;;;;;;;126.10;46.45;;;12.10;99.90;;;;;;5114356;28;20504;-42
2022/10/21 07:34:24;;;;;;;185.77;54.47;;;14.00;99.90;;;;;;5113025;28;20052;-41
2022/10/21 07:36:53;;;;;;;156.32;50.35;;;13.90;99.90;;;;;;5113407;28;20054;-41
2022/10/21 07:39:22;;;;;;;157.80;50.72;;;13.60;99.90;;;;;;5113638;28;20054;-41
2022/10/21 07:41:51;;;;;;;175.07;51.55;;;13.40;99.90;;;;;;5114227;28;20047;-42
2022/10/21 07:44:18;;;;;;;182.05;52.20;;;13.70;99.90;;;;;;5114217;28;20430;-42
2022/10/21 07:46:44;;;;;;;139.27;47.90;;;11.80;99.90;;;;;;5114146;28;20131;-42
2022/10/21 07:49:11;;;;;;;153.90;50.38;;;11.80;99.90;;;;;;5114168;28;20075;-42
2022/10/21 07:51:37;;;;;;;150.93;50.72;;;11.80;99.90;;;;;;5114700;28;20389;-42
2022/10/21 07:54:03;;;;;;;164.90;49.28;;;13.00;99.90;;;;;;5114609;28;20046;-42
2022/10/21 07:56:32;;;;;;;134.63;47.13;;;13.60;99.90;;;;;;5114136;28;20047;-42
2022/10/21 07:59:00;;;;;;;122.25;46.83;;;12.60;99.90;;;;;;5114912;28;20418;-42
2022/10/21 08:01:26;;;;;;;136.18;48.55;;;11.80;99.90;;;;;;5114002;28;20100;-42
2022/10/21 08:03:53;;;;;;;135.10;46.58;;;12.70;99.90;;;;;;5114041;28;20044;-42
2022/10/21 08:06:20;;;;;;;115.43;45.03;;;13.60;99.90;;;;;;5113947;28;20042;-42
2022/10/21 08:08:46;;;;;;;103.90;42.90;;;11.80;99.90;;;;;;5114565;28;20055;-42
2022/10/21 08:11:19;;;;;;;135.30;47.80;;;13.00;99.90;;;;;;5113016;28;20043;-42
2022/10/21 08:13:45;;;;;;;149.65;54.75;;;11.90;99.90;;;;;;5113579;28;20538;-42
2022/10/21 08:16:10;;;;;;;145.15;50.63;;;13.60;99.90;;;;;;5078906;28;20047;-42
2022/10/21 08:18:36;;;;;;;184.10;53.30;;;12.20;99.90;;;;;;5113873;28;20051;-42
2022/10/21 08:21:02;;;;;;;117.68;44.20;;;11.90;99.90;;;;;;5113869;28;20040;-42
2022/10/21 08:23:28;;;;;;;132.20;46.53;;;11.90;99.90;;;;;;5113209;28;20375;-42
2022/10/21 08:25:56;;;;;;;129.30;45.67;;;12.10;99.90;;;;;;5113748;28;20080;-42
2022/10/21 08:28:24;;;;;;;108.03;42.35;;;13.00;99.90;;;;;;5116652;28;20055;-42
2022/10/21 08:30:50;;;;;;;142.57;48.65;;;12.20;99.90;;;;;;5116468;28;20043;-43
2022/10/21 08:33:16;;;;;;;132.95;46.65;;;13.80;99.90;;;;;;5117731;28;20051;-43
2022/10/21 08:35:43;;;;;;;140.02;46.67;;;12.70;99.90;;;;;;5117632;28;20059;-43
2022/10/21 08:38:09;;;;;;;130.48;47.30;;;12.20;99.90;;;;;;5118469;28;20096;-42
2022/10/21 08:40:46;;;;;;;168.63;50.95;;;13.90;99.90;;;;;;5117617;28;20405;-43
2022/10/21 08:43:25;;;;;;;122.00;46.30;;;12.50;99.90;;;;;;5118157;28;20051;-42
2022/10/21 08:45:56;;;;;;;127.30;45.97;;;12.40;99.90;;;;;;5117550;28;20039;-43
2022/10/21 08:48:29;;;;;;;148.25;47.67;;;13.80;99.90;;;;;;5118086;28;20043;-43
2022/10/21 08:50:56;;;;;;;121.63;44.45;;;12.50;99.90;;;;;;5117089;28;20070;-43
2022/10/21 08:53:34;;;;;;;110.97;43.72;;;13.50;99.90;;;;;;5117379;28;20401;-42
2022/10/21 08:56:09;;;;;;;92.75;38.13;;;14.20;99.90;;;;;;5098754;28;20081;-43
2022/10/21 08:58:35;;;;;;;97.05;39.85;;;13.60;99.90;;;;;;5118077;28;20389;-42
2022/10/21 09:01:21;;;;;;;80.63;38.70;;;14.00;99.90;;;;;;5117683;28;20043;-43
2022/10/21 09:04:11;;;;;;;80.30;37.53;;;14.20;99.90;;;;;;5117061;28;20048;-43
2022/10/21 09:07:11;;;;;;;80.05;34.03;;;13.30;99.90;;;;;;5098118;28;20052;-43
2022/10/21 09:09:49;;;;;;;79.05;36.80;;;14.20;99.90;;;;;;5117802;28;20070;-43
2022/10/21 09:12:21;;;;;;;82.63;38.55;;;13.70;99.90;;;;;;5117868;28;20048;-43
2022/10/21 09:15:15;;;;;;;71.53;32.58;;;14.40;99.90;;;;;;5116043;28;20067;-43
2022/10/21 09:18:07;;;;;;;64.63;32.70;;;14.40;99.90;;;;;;5117020;28;20154;-43
2022/10/21 09:20:51;;;;;;;64.35;31.27;;;14.60;99.90;;;;;;5116164;28;20081;-43
2022/10/21 09:23:41;;;;;;;59.50;29.58;;;14.80;99.90;;;;;;5115652;28;20051;-43
2022/10/21 09:26:12;;;;;;;57.33;28.58;;;15.00;99.90;;;;;;5115722;28;20047;-43
2022/10/21 09:28:38;;;;;;;51.42;27.33;;;15.10;99.90;;;;;;5117246;28;20052;-44
2022/10/21 09:31:14;;;;;;;56.95;28.48;;;15.20;99.90;;;;;;5098647;28;20048;-44
2022/10/21 09:33:45;;;;;;;42.55;21.25;;;15.40;99.90;;;;;;5116565;28;20036;-43
2022/10/21 09:36:17;;;;;;;72.63;22.08;;;15.50;99.90;;;;;;5117416;28;20059;-44
2022/10/21 09:38:50;;;;;;;37.35;19.33;;;15.60;99.90;;;;;;5116649;28;20112;-44
2022/10/21 09:41:19;;;;;;;56.63;18.40;;;15.40;99.90;;;;;;5116734;28;20047;-44
2022/10/21 09:43:47;;;;;;;61.40;19.33;;;15.10;99.90;;;;;;5116415;28;20512;-44
2022/10/21 09:46:14;;;;;;;40.63;18.85;;;14.90;99.90;;;;;;5116352;28;20059;-44
2022/10/21 09:48:48;;;;;;;70.53;18.55;;;14.90;99.90;;;;;;5116278;28;20105;-45
2022/10/21 09:51:19;;;;;;;40.30;16.65;;;14.90;99.90;;;;;;5116217;28;20447;-45
2022/10/21 09:53:53;;;;;;;23.63;14.45;;;14.90;99.90;;;;;;5116133;28;20044;-45
2022/10/21 09:56:23;;;;;;;27.10;15.77;;;14.80;99.90;;;;;;5115922;28;20112;-45
2022/10/21 09:59:10;;;;;;;35.22;15.45;;;14.80;99.90;;;;;;5115717;28;20377;-45
2022/10/21 10:01:37;;;;;;;26.70;15.65;;;14.90;99.90;;;;;;5114774;28;20497;-45
2022/10/21 10:04:30;;;;;;;29.05;16.48;;;15.00;99.90;;;;;;5116537;28;20126;-45
2022/10/21 10:06:58;;;;;;;37.70;17.52;;;15.00;99.90;;;;;;5114183;28;20134;-45
2022/10/21 10:09:35;;;;;;;49.97;16.88;;;14.90;99.90;;;;;;5116438;28;20066;-45
2022/10/21 10:12:03;;;;;;;28.13;15.45;;;14.90;99.90;;;;;;5116686;28;20054;-45
2022/10/21 10:14:34;;;;;;;25.02;14.40;;;14.90;99.90;;;;;;5115733;28;20035;-45
2022/10/21 10:17:18;;;;;;;39.35;15.23;;;14.90;99.90;;;;;;5115411;28;20048;-44
2022/10/21 10:20:03;;;;;;;27.75;14.98;;;14.90;99.90;;;;;;5114757;28;20096;-45
2022/10/21 10:22:40;;;;;;;44.53;16.75;;;14.80;99.90;;;;;;5097517;28;20397;-44
2022/10/21 10:25:17;;;;;;;45.08;15.93;;;14.80;99.90;;;;;;5114637;28;20120;-44
2022/10/21 10:28:02;;;;;;;35.70;17.83;;;15.00;99.90;;;;;;5115751;28;20052;-44
2022/10/21 10:30:51;;;;;;;27.33;14.80;;;15.20;99.90;;;;;;5114249;28;20512;-44
2022/10/21 10:33:23;;;;;;;35.25;16.52;;;15.50;99.90;;;;;;5115460;28;20046;-44
2022/10/21 10:36:01;;;;;;;28.50;15.45;;;15.60;99.90;;;;;;5115383;28;20095;-45
2022/10/21 10:38:40;;;;;;;33.53;16.52;;;15.90;99.90;;;;;;5115965;28;20052;-44
2022/10/21 10:41:12;;;;;;;29.05;14.93;;;15.90;99.90;;;;;;5115331;28;20047;-44
2022/10/21 10:43:48;;;;;;;21.67;15.02;;;15.90;99.90;;;;;;5114338;28;20485;-45
2022/10/21 10:46:32;;;;;;;24.13;13.23;;;16.00;99.90;;;;;;5115082;28;20055;-45
2022/10/21 10:49:23;;;;;;;31.80;11.27;;;15.90;99.90;;;;;;5114870;28;20047;-44
2022/10/21 10:52:14;;;;;;;18.75;10.70;;;15.70;99.90;;;;;;5112313;28;20052;-44
2022/10/21 10:54:41;;;;;;;17.98;10.30;;;15.60;99.90;;;;;;5114918;28;20123;-44
2022/10/21 10:57:22;;;;;;;23.73;10.73;;;15.60;99.90;;;;;;5114950;28;20051;-44
2022/10/21 11:00:18;;;;;;;23.58;11.30;;;15.60;99.90;;;;;;5114813;28;20047;-44
2022/10/21 11:03:01;;;;;;;14.65;10.38;;;15.60;99.90;;;;;;5115068;28;20048;-44
2022/10/21 11:05:35;;;;;;;;;;;15.60;99.90;;;;;;5115174;28;20036;-43
2022/10/21 11:08:03;;;;;;;15.52;9.63;;;15.60;99.90;;;;;;5114681;28;20393;-43
2022/10/21 11:10:31;;;;;;;19.08;8.75;;;15.70;99.90;;;;;;5113482;28;20150;-43
2022/10/21 11:12:59;;;;;;;24.90;10.82;;;15.80;99.90;;;;;;5114691;28;20052;-43
2022/10/21 11:15:44;;;;;;;20.33;10.23;;;15.70;99.90;;;;;;5113421;28;20075;-43
2022/10/21 11:18:20;;;;;;;27.48;10.20;;;15.80;99.90;;;;;;5114661;28;20135;-43
2022/10/21 11:21:31;;;;;;;21.15;8.23;;;15.90;99.90;;;;;;5114590;28;20047;-43
2022/10/21 11:24:15;;;;;;;18.48;8.20;;;15.80;99.90;;;;;;5114560;28;20051;-43
2022/10/21 11:27:03;;;;;;;26.48;9.63;;;15.80;99.90;;;;;;5114814;28;20054;-43
2022/10/21 11:29:34;;;;;;;17.30;8.70;;;15.80;99.90;;;;;;5115302;28;20092;-43
2022/10/21 11:32:10;;;;;;;20.60;9.05;;;15.80;99.90;;;;;;5114433;28;20048;-43
2022/10/21 11:34:44;;;;;;;19.90;9.13;;;15.80;99.90;;;;;;5114264;28;20059;-43
2022/10/21 11:37:28;;;;;;;19.98;8.95;;;15.80;99.90;;;;;;5113688;28;20120;-43
2022/10/21 11:40:19;;;;;;;37.58;9.68;;;15.80;99.90;;;;;;5114415;28;20051;-43
2022/10/21 11:42:49;;;;;;;46.47;9.18;;;15.90;99.90;;;;;;5114288;28;20054;-43
2022/10/21 11:45:27;;;;;;;17.17;7.82;;;15.90;99.90;;;;;;5113838;28;20358;-42
2022/10/21 11:48:18;;;;;;;14.60;8.48;;;16.00;99.90;;;;;;5114200;28;20104;-42
2022/10/21 11:50:49;;;;;;;14.50;8.35;;;16.10;99.90;;;;;;5114477;28;20078;-42
2022/10/21 11:53:53;;;;;;;23.23;8.55;;;16.20;99.90;;;;;;5114121;28;20056;-41
2022/10/21 11:56:29;;;;;;;;;;;16.10;99.90;;;;;;5114328;28;20575;-42
2022/10/21 11:58:59;;;;;;;33.42;9.13;;;16.00;99.90;;;;;;5114130;28;19966;-41
2022/10/21 12:01:51;;;;;;;25.30;9.25;;;16.10;99.90;;;;;;5114605;28;20051;-42
2022/10/21 12:04:28;;;;;;;20.98;9.32;;;16.10;99.90;;;;;;5118589;28;20471;-41
2022/10/21 12:07:09;;;;;;;35.90;9.68;;;16.10;99.90;;;;;;5118243;28;20085;-41
2022/10/21 12:09:49;;;;;;;28.35;9.18;;;16.10;99.90;;;;;;5118774;28;20397;-41
2022/10/21 12:12:31;;;;;;;25.48;9.27;;;16.10;99.90;;;;;;5118473;28;20371;-41
2022/10/21 12:15:01;;;;;;;26.73;8.57;;;16.20;99.90;;;;;;5118064;28;20470;-41
2022/10/21 12:17:31;;;;;;;26.42;9.15;;;16.30;99.90;;;;;;5117739;28;20443;-40
2022/10/21 12:20:01;;;;;;;31.58;9.52;;;16.30;99.90;;;;;;5118102;28;20544;-41
2022/10/21 12:22:29;;;;;;;25.25;8.85;;;16.30;99.90;;;;;;5116968;28;20094;-39
2022/10/21 12:25:33;;;;;;;27.40;9.43;;;16.30;99.90;;;;;;5118529;28;20044;-40
2022/10/21 12:28:10;;;;;;;32.88;9.43;;;16.30;99.90;;;;;;5117119;28;20055;-39
2022/10/21 12:30:58;;;;;;;25.67;8.75;;;16.30;99.90;;;;;;5117072;28;20359;-40
2022/10/21 12:33:32;;;;;;;19.98;7.72;;;16.30;99.90;;;;;;5117810;28;20108;-38
2022/10/21 12:36:21;;;;;;;16.05;8.77;;;16.30;99.90;;;;;;5117544;28;20060;-39
2022/10/21 12:38:50;;;;;;;18.10;8.43;;;16.30;99.90;;;;;;5116890;28;20046;-39
2022/10/21 12:41:23;;;;;;;12.85;8.23;;;16.20;99.90;;;;;;5117602;28;20122;-38
2022/10/21 12:44:01;;;;;;;20.98;8.05;;;16.30;99.90;;;;;;5100481;28;20055;-37